Airfield :
LOGIN :

Register | Disclaimer

   EN    FR    IT 

 










Legend :    VFR   Marginal VFR   IFR   Intensive IFR   Very Intensive IFR
Visi :
Ceiling :
>= 8 km
>= 3000ft
5 to 8 km
1000 to 3000 ft
1500m to 5 km
500 to 1000 ft
800 to 1500m
200 to 500 ft
< 800m
< 200 ft
Symbols :   Thunderstorms  Fog  Heavy snow  Heavy precipitations  Wind > 20 kt
SIGMETs :     Misc.  Thunderstorms  Icing  Turbulence  Mountain Waves  Volcanic Ashes






- Airport Elevation : 28 ft
- IATA code : SOZ


LFKS - Solenzara

CURRENT METAR :
  • 161230Z AUTO 12003KT 050V170 9999 SCT045 20/08 Q1016

EXPIRED METARs :
  • 161200Z AUTO 11004KT 060V170 9999 OVC045 20/08 Q1016
  • 161130Z AUTO 10005KT 050V150 9999 OVC043 21/08 Q1016
  • 161100Z AUTO 10006KT 060V130 9999 SCT037 BKN045 20/08 Q1017
  • 161030Z AUTO 07005KT 020V150 9999 BKN037 OVC043 19/08 Q1017
  • 161000Z AUTO 02004KT 340V050 9999 OVC035 19/10 Q1017

Expired Forecast.



MET'MAP, your aeronautical weather chart ! - Copyright ORBIFLY December 2007 - Disclaimer

ORBIFLY MET'MAP TEAM :

Programming & Development : Alexandra Zaïnal
Concept & original design : Baudouin d'Aumeries
Assistance for programming : Marc-Olivier Méhu
Technical & hardware support : Manuel Goepfert

Contact : metmap@orbifly.com




SOURCES & CREDITS :

   NOAA